createdAt,value
2022-12-04T00:02:55.640Z,43.55
2022-12-04T00:06:24.455Z,43.55
2022-12-04T00:09:26.669Z,43.80
2022-12-04T00:12:29.180Z,43.80
2022-12-04T00:15:31.393Z,45.10
2022-12-04T00:18:34.093Z,49.20
2022-12-04T00:21:36.867Z,44.45
2022-12-04T00:24:39.150Z,47.80
2022-12-04T00:27:41.350Z,48.67
2022-12-04T00:30:44.432Z,48.53
2022-12-04T00:33:46.953Z,42.15
2022-12-04T00:36:49.250Z,43.03
2022-12-04T00:39:51.612Z,41.83
2022-12-04T00:42:53.854Z,48.40
2022-12-04T00:45:56.657Z,45.80
2022-12-04T00:49:02.033Z,48.45
2022-12-04T00:52:04.281Z,43.88
2022-12-04T00:55:06.800Z,39.10
2022-12-04T00:58:09.264Z,48.05
2022-12-04T01:01:13.494Z,45.85
2022-12-04T01:04:15.807Z,45.15
2022-12-04T01:07:18.025Z,44.97
2022-12-04T01:10:20.559Z,47.37
2022-12-04T01:13:23.389Z,49.63
2022-12-04T01:16:28.056Z,48.33
2022-12-04T01:19:30.305Z,45.70
2022-12-04T01:22:32.495Z,46.90
2022-12-04T01:25:34.643Z,52.37
2022-12-04T01:28:36.889Z,43.88
2022-12-04T01:31:39.373Z,43.47
2022-12-04T01:34:41.580Z,51.95
2022-12-04T01:37:44.013Z,53.85
2022-12-04T01:40:46.205Z,51.77
2022-12-04T01:44:07.153Z,49.58
2022-12-04T01:47:10.097Z,56.20
2022-12-04T01:50:12.310Z,58.33
2022-12-04T01:53:14.770Z,49.55
2022-12-04T01:56:18.250Z,49.93
2022-12-04T01:59:22.773Z,51.75
2022-12-04T02:02:30.512Z,49.13
2022-12-04T02:05:32.774Z,45.95
2022-12-04T02:08:36.100Z,49.13
2022-12-04T02:11:42.535Z,48.93
2022-12-04T02:14:48.062Z,51.40
2022-12-04T02:18:02.054Z,52.30
2022-12-04T02:21:04.250Z,54.17
2022-12-04T02:24:26.912Z,56.10
2022-12-04T02:27:43.587Z,55.37
2022-12-04T02:30:46.226Z,55.20
2022-12-04T02:33:52.412Z,54.55
2022-12-04T02:37:04.648Z,61.97
2022-12-04T02:40:09.712Z,61.80
2022-12-04T02:43:20.456Z,75.00
2022-12-04T02:46:32.422Z,65.07
2022-12-04T02:49:41.088Z,65.50
2022-12-04T02:52:46.425Z,65.63
2022-12-04T02:55:52.170Z,65.88
2022-12-04T02:58:59.445Z,59.17
2022-12-04T03:02:06.371Z,61.63
2022-12-04T03:05:10.549Z,63.08
2022-12-04T03:08:16.606Z,62.63
2022-12-04T03:11:18.912Z,66.90
2022-12-04T03:14:24.231Z,64.33
2022-12-04T03:17:29.595Z,69.15
2022-12-04T03:20:33.000Z,67.15
2022-12-04T03:23:44.601Z,65.68
2022-12-04T03:26:47.813Z,74.78
2022-12-04T03:29:54.181Z,67.67
2022-12-04T03:33:17.159Z,75.18
2022-12-04T03:36:19.354Z,84.47
2022-12-04T03:39:25.393Z,80.55
2022-12-04T03:42:32.202Z,88.68
2022-12-04T03:45:46.166Z,90.87
2022-12-04T03:48:53.762Z,94.70
2022-12-04T03:52:17.253Z,85.57
2022-12-04T03:55:22.601Z,103.60
2022-12-04T03:58:28.307Z,95.05
2022-12-04T04:01:34.427Z,97.50
2022-12-04T04:04:37.594Z,111.35
2022-12-04T04:08:20.308Z,99.40
2022-12-04T04:11:31.539Z,101.03
2022-12-04T04:14:56.246Z,97.53
2022-12-04T04:18:17.343Z,95.23
2022-12-04T04:21:41.899Z,106.05
2022-12-04T04:24:49.084Z,87.93
2022-12-04T04:27:52.704Z,85.38
2022-12-04T04:30:59.386Z,82.07
2022-12-04T04:34:04.634Z,85.60
2022-12-04T04:37:11.790Z,84.90
2022-12-04T04:40:32.925Z,93.85
2022-12-04T04:43:49.294Z,87.30
2022-12-04T04:46:54.363Z,80.05
2022-12-04T04:49:57.582Z,83.60
2022-12-04T04:53:02.443Z,83.25
2022-12-04T04:56:06.002Z,79.60
2022-12-04T04:59:08.300Z,73.80
2022-12-04T05:02:10.581Z,81.53
2022-12-04T05:05:13.443Z,73.47
2022-12-04T05:08:15.768Z,77.15
2022-12-04T05:11:18.221Z,92.88
2022-12-04T05:14:20.481Z,76.57
2022-12-04T05:17:22.736Z,75.82
2022-12-04T05:20:24.941Z,82.90
2022-12-04T05:23:27.111Z,94.32
2022-12-04T05:26:29.323Z,102.78
2022-12-04T05:29:35.758Z,101.53
2022-12-04T05:32:38.484Z,125.07
2022-12-04T05:35:40.628Z,127.57
2022-12-04T05:38:42.976Z,120.32
2022-12-04T05:41:45.146Z,110.38
2022-12-04T05:44:48.059Z,121.75
2022-12-04T05:47:50.257Z,122.45
2022-12-04T05:50:52.476Z,98.97
2022-12-04T05:53:54.704Z,127.55
2022-12-04T05:56:56.969Z,129.73
2022-12-04T05:59:59.161Z,135.27
2022-12-04T06:03:01.598Z,144.38
2022-12-04T06:06:04.692Z,133.17
2022-12-04T06:09:07.830Z,139.85
2022-12-04T06:12:09.996Z,130.07
2022-12-04T06:15:12.284Z,121.35
2022-12-04T06:18:14.532Z,113.63
2022-12-04T06:21:16.814Z,119.07
2022-12-04T06:24:21.083Z,148.57
2022-12-04T06:27:28.052Z,121.60
2022-12-04T06:30:30.798Z,119.78
2022-12-04T06:33:33.457Z,155.32
2022-12-04T06:36:35.794Z,120.10
2022-12-04T06:39:38.097Z,140.52
2022-12-04T06:42:40.417Z,170.55
2022-12-04T06:45:43.018Z,200.07
2022-12-04T06:48:45.459Z,178.52
2022-12-04T06:51:47.858Z,162.20
2022-12-04T06:54:50.104Z,145.18
2022-12-04T06:57:52.334Z,166.70
2022-12-04T07:00:55.245Z,147.57
2022-12-04T07:03:57.600Z,137.60
2022-12-04T07:06:59.784Z,137.57
2022-12-04T07:10:02.841Z,133.77
2022-12-04T07:13:05.188Z,121.38
2022-12-04T07:16:08.464Z,121.40
2022-12-04T07:19:11.779Z,112.35
2022-12-04T07:22:14.022Z,119.00
2022-12-04T07:25:16.319Z,115.53
2022-12-04T07:28:18.544Z,107.68
2022-12-04T07:31:22.315Z,104.85
2022-12-04T07:34:24.743Z,111.05
2022-12-04T07:37:27.047Z,95.17
2022-12-04T07:40:29.307Z,106.95
2022-12-04T07:43:32.116Z,94.05
2022-12-04T07:46:34.548Z,101.63
2022-12-04T07:49:36.829Z,106.70
2022-12-04T07:52:39.514Z,98.63
2022-12-04T07:55:41.784Z,101.15
2022-12-04T07:58:44.252Z,86.25
2022-12-04T08:01:46.547Z,77.78
2022-12-04T08:04:48.771Z,74.40
2022-12-04T08:07:52.349Z,65.83
2022-12-04T08:10:54.824Z,74.78
2022-12-04T08:13:58.124Z,74.22
2022-12-04T08:17:00.727Z,71.55
2022-12-04T08:20:03.408Z,62.53
2022-12-04T08:23:05.601Z,66.00
2022-12-04T08:26:08.093Z,64.97
2022-12-04T08:29:10.838Z,71.95
2022-12-04T08:32:13.021Z,69.10
2022-12-04T08:35:15.363Z,66.45
2022-12-04T08:38:17.792Z,63.70
2022-12-04T08:41:21.587Z,64.25
2022-12-04T08:44:23.830Z,61.65
2022-12-04T08:47:26.040Z,62.67
2022-12-04T08:50:28.536Z,64.22
2022-12-04T08:53:31.117Z,65.50
2022-12-04T08:56:34.208Z,52.13
2022-12-04T08:59:36.585Z,58.28
2022-12-04T09:02:38.784Z,55.08
2022-12-04T09:05:41.669Z,62.65
2022-12-04T09:08:44.316Z,58.47
2022-12-04T09:11:46.675Z,56.50
2022-12-04T09:14:49.203Z,61.92
2022-12-04T09:17:51.639Z,61.88
2022-12-04T09:20:58.244Z,61.70
2022-12-04T09:24:00.614Z,59.40
2022-12-04T09:27:02.800Z,61.75
2022-12-04T09:30:06.421Z,60.70
2022-12-04T09:33:08.868Z,64.30
2022-12-04T09:36:16.190Z,60.58
2022-12-04T09:39:18.745Z,54.43
2022-12-04T09:42:43.212Z,52.83
2022-12-04T09:45:47.877Z,51.78
2022-12-04T09:48:56.268Z,46.10
2022-12-04T09:52:00.679Z,53.97
2022-12-04T09:55:04.158Z,55.13
2022-12-04T09:58:10.417Z,47.55
2022-12-04T10:01:27.230Z,46.00
2022-12-04T10:04:30.265Z,46.20
2022-12-04T10:07:37.227Z,42.08
2022-12-04T10:10:41.620Z,42.80
2022-12-04T10:14:02.913Z,44.22
2022-12-04T10:17:11.577Z,41.45
2022-12-04T10:20:14.064Z,38.42
2022-12-04T10:23:22.863Z,34.20
2022-12-04T10:26:28.674Z,36.13
2022-12-04T10:29:33.115Z,34.70
2022-12-04T10:32:36.415Z,30.55
2022-12-04T10:35:41.893Z,35.60
2022-12-04T10:38:47.568Z,33.17
2022-12-04T10:41:57.197Z,31.13
2022-12-04T10:44:59.660Z,32.38
2022-12-04T10:48:02.112Z,30.50
2022-12-04T10:51:04.298Z,29.02
2022-12-04T10:54:21.931Z,24.98
2022-12-04T10:57:34.396Z,29.97
2022-12-04T11:00:36.682Z,30.48
2022-12-04T11:03:39.238Z,25.27
2022-12-04T11:06:41.780Z,27.55
2022-12-04T11:09:44.049Z,25.70
2022-12-04T11:13:00.121Z,25.17
2022-12-04T11:16:03.023Z,30.55
2022-12-04T11:19:19.040Z,31.55
2022-12-04T11:22:21.612Z,28.90
2022-12-04T11:25:25.994Z,28.27
2022-12-04T11:28:41.643Z,28.87
2022-12-04T11:31:50.131Z,28.08
2022-12-04T11:34:53.616Z,27.92
2022-12-04T11:38:03.015Z,26.55
2022-12-04T11:41:06.636Z,28.70
2022-12-04T11:44:38.199Z,26.07
2022-12-04T11:47:40.587Z,27.38
2022-12-04T11:50:57.825Z,28.05
2022-12-04T11:54:03.966Z,25.63
2022-12-04T11:57:20.352Z,25.17
2022-12-04T12:00:23.276Z,23.20
2022-12-04T12:03:38.886Z,27.30
2022-12-04T12:07:00.673Z,26.50
2022-12-04T12:10:06.700Z,25.25
2022-12-04T12:13:18.307Z,24.65
2022-12-04T12:16:20.634Z,25.93
2022-12-04T12:19:29.036Z,28.52
2022-12-04T12:22:50.074Z,23.67
2022-12-04T12:25:52.768Z,26.30
2022-12-04T12:29:01.455Z,29.23
2022-12-04T12:32:04.898Z,26.10
2022-12-04T12:35:17.041Z,22.02
2022-12-04T12:38:25.677Z,25.88
2022-12-04T12:41:30.239Z,23.98
2022-12-04T12:44:35.352Z,22.83
2022-12-04T12:47:42.504Z,22.30
2022-12-04T12:50:58.177Z,23.05
2022-12-04T12:54:10.635Z,25.10
2022-12-04T12:57:24.022Z,26.00
2022-12-04T13:00:26.475Z,24.08
2022-12-04T13:03:38.189Z,26.07
2022-12-04T13:06:42.318Z,27.48
2022-12-04T13:09:55.162Z,25.10
2022-12-04T13:12:57.812Z,23.80
2022-12-04T13:16:05.900Z,23.17
2022-12-04T13:19:13.346Z,25.20
2022-12-04T13:22:34.392Z,26.15
2022-12-04T13:25:50.750Z,26.20
2022-12-04T13:29:11.762Z,25.45
2022-12-04T13:32:33.261Z,24.95
2022-12-04T13:35:35.570Z,24.47
2022-12-04T13:38:37.816Z,28.90
2022-12-04T13:41:40.082Z,24.35
2022-12-04T13:44:42.568Z,27.90
2022-12-04T13:47:55.695Z,27.38
2022-12-04T13:51:06.007Z,26.73
2022-12-04T13:54:11.398Z,27.17
2022-12-04T13:57:19.870Z,32.80
2022-12-04T14:00:30.373Z,27.02
2022-12-04T14:03:34.087Z,29.38
2022-12-04T14:06:42.235Z,30.23
2022-12-04T14:09:49.302Z,30.10
2022-12-04T14:13:17.935Z,31.35
2022-12-04T14:16:23.465Z,30.25
2022-12-04T14:19:36.809Z,35.00
2022-12-04T14:22:42.288Z,32.40
2022-12-04T14:25:44.630Z,34.35
2022-12-04T14:28:46.956Z,32.65
2022-12-04T14:31:49.562Z,33.25
2022-12-04T14:34:53.392Z,39.88
2022-12-04T14:37:57.751Z,40.93
2022-12-04T14:41:01.817Z,45.03
2022-12-04T14:44:05.614Z,47.42
2022-12-04T14:47:26.695Z,47.45
2022-12-04T14:50:39.418Z,37.92
2022-12-04T14:53:42.380Z,36.70
2022-12-04T14:56:52.128Z,39.20
2022-12-04T14:59:55.267Z,35.78
2022-12-04T15:03:01.334Z,37.85
2022-12-04T15:06:08.571Z,41.38
2022-12-04T15:09:34.774Z,38.23
2022-12-04T15:12:55.464Z,37.95
2022-12-04T15:15:58.308Z,42.33
2022-12-04T15:19:00.961Z,38.83
2022-12-04T15:22:11.743Z,42.60
2022-12-04T15:25:22.563Z,45.53
2022-12-04T15:28:31.354Z,50.30
2022-12-04T15:31:39.956Z,41.40
2022-12-04T15:34:48.181Z,44.85
2022-12-04T15:37:50.787Z,43.78
2022-12-04T15:40:57.389Z,47.43
2022-12-04T15:44:00.231Z,45.30
2022-12-04T15:47:04.302Z,42.15
2022-12-04T15:50:09.884Z,42.50
2022-12-04T15:53:17.806Z,40.70
2022-12-04T15:56:21.725Z,43.90
2022-12-04T15:59:25.904Z,43.92
2022-12-04T16:02:30.040Z,44.30
2022-12-04T16:05:36.585Z,40.63
2022-12-04T16:08:40.412Z,37.58
2022-12-04T16:11:44.011Z,38.43
2022-12-04T16:14:46.596Z,37.33
2022-12-04T16:17:49.334Z,35.78
2022-12-04T16:20:51.896Z,35.58
2022-12-04T16:23:54.231Z,34.45
2022-12-04T16:26:57.040Z,35.97
2022-12-04T16:30:00.666Z,35.65
2022-12-04T16:33:03.038Z,38.50
2022-12-04T16:36:05.673Z,38.20
2022-12-04T16:39:08.103Z,39.67
2022-12-04T16:42:18.260Z,37.83
2022-12-04T16:45:23.401Z,36.88
2022-12-04T16:48:26.289Z,37.78
2022-12-04T16:51:29.857Z,42.40
2022-12-04T16:54:32.293Z,40.47
2022-12-04T16:57:34.984Z,39.30
2022-12-04T17:00:37.729Z,37.33
2022-12-04T17:03:40.507Z,38.08
2022-12-04T17:06:43.440Z,38.90
2022-12-04T17:09:45.961Z,41.78
2022-12-04T17:12:48.565Z,42.37
2022-12-04T17:15:50.932Z,41.45
2022-12-04T17:18:53.390Z,44.35
2022-12-04T17:21:56.096Z,41.60
2022-12-04T17:24:58.688Z,42.67
2022-12-04T17:28:01.517Z,41.70
2022-12-04T17:31:06.179Z,41.83
2022-12-04T17:34:08.705Z,39.65
2022-12-04T17:37:11.104Z,43.15
2022-12-04T17:40:14.741Z,39.30
2022-12-04T17:43:21.867Z,42.50
2022-12-04T17:46:24.907Z,44.53
2022-12-04T17:49:27.494Z,42.03
2022-12-04T17:52:29.931Z,41.80
2022-12-04T17:55:34.128Z,41.15
2022-12-04T17:58:36.539Z,36.47
2022-12-04T18:01:38.969Z,38.58
2022-12-04T18:04:41.809Z,42.88
2022-12-04T18:07:44.046Z,41.03
2022-12-04T18:10:46.364Z,39.80
2022-12-04T18:13:49.376Z,35.97
2022-12-04T18:16:53.700Z,36.60
2022-12-04T18:19:59.917Z,34.00
2022-12-04T18:23:05.210Z,36.47
2022-12-04T18:26:07.748Z,35.38
2022-12-04T18:29:12.010Z,41.50
2022-12-04T18:32:14.903Z,38.45
2022-12-04T18:35:17.219Z,37.08
2022-12-04T18:38:19.604Z,40.60
2022-12-04T18:41:22.216Z,37.08
2022-12-04T18:44:24.743Z,37.00
2022-12-04T18:47:27.072Z,35.00
2022-12-04T18:50:29.642Z,34.65
2022-12-04T18:53:32.154Z,34.53
2022-12-04T18:56:35.463Z,35.45
2022-12-04T18:59:38.660Z,33.20
2022-12-04T19:02:41.525Z,40.20
2022-12-04T19:05:48.002Z,34.30
2022-12-04T19:08:50.569Z,33.00
2022-12-04T19:11:53.016Z,38.15
2022-12-04T19:14:55.404Z,37.37
2022-12-04T19:17:57.851Z,34.30
2022-12-04T19:21:00.378Z,35.30
2022-12-04T19:24:03.807Z,31.55
2022-12-04T19:27:12.215Z,34.47
2022-12-04T19:30:14.779Z,34.20
2022-12-04T19:33:17.234Z,35.40
2022-12-04T19:36:20.130Z,33.70
2022-12-04T19:39:22.790Z,36.80
2022-12-04T19:42:25.308Z,36.30
2022-12-04T19:45:27.742Z,34.77
2022-12-04T19:48:30.101Z,34.55
2022-12-04T19:51:33.428Z,34.80
2022-12-04T19:54:35.813Z,35.33
2022-12-04T19:57:38.209Z,35.17
2022-12-04T20:00:40.685Z,35.93
2022-12-04T20:03:43.592Z,37.17
2022-12-04T20:06:46.714Z,37.10
2022-12-04T20:09:54.680Z,38.60
2022-12-04T20:12:57.197Z,43.50
2022-12-04T20:16:03.423Z,35.77
2022-12-04T20:19:06.784Z,36.38
2022-12-04T20:22:09.218Z,38.05
2022-12-04T20:25:11.490Z,37.05
2022-12-04T20:28:15.341Z,30.35
2022-12-04T20:31:19.492Z,31.93
2022-12-04T20:34:23.618Z,37.35
2022-12-04T20:37:26.297Z,36.42
2022-12-04T20:40:28.837Z,34.40
2022-12-04T20:43:31.774Z,33.35
2022-12-04T20:46:35.633Z,36.97
2022-12-04T20:49:38.348Z,37.35
2022-12-04T20:52:40.726Z,34.20
2022-12-04T20:55:51.866Z,32.90
2022-12-04T20:58:55.125Z,34.75
2022-12-04T21:01:57.527Z,40.03
2022-12-04T21:05:00.317Z,37.42
2022-12-04T21:08:02.728Z,39.85
2022-12-04T21:11:05.279Z,37.72
2022-12-04T21:14:28.697Z,40.38
2022-12-04T21:17:31.348Z,36.97
2022-12-04T21:20:33.693Z,38.30
2022-12-04T21:23:36.105Z,35.70
2022-12-04T21:26:38.380Z,35.13
2022-12-04T21:29:40.823Z,36.80
2022-12-04T21:32:43.371Z,37.90
2022-12-04T21:35:45.912Z,38.08
2022-12-04T21:38:48.220Z,39.88
2022-12-04T21:42:09.285Z,42.42
2022-12-04T21:45:11.501Z,36.60
2022-12-04T21:48:13.750Z,34.00
2022-12-04T21:51:39.913Z,41.08
2022-12-04T21:54:38.095Z,41.15
2022-12-04T21:57:40.951Z,33.78
2022-12-04T22:00:43.202Z,38.33
2022-12-04T22:03:45.819Z,39.70
2022-12-04T22:06:48.300Z,32.20
2022-12-04T22:09:50.503Z,34.00
2022-12-04T22:12:52.880Z,32.83
2022-12-04T22:15:55.094Z,29.38
2022-12-04T22:18:58.453Z,33.03
2022-12-04T22:22:00.848Z,41.17
2022-12-04T22:25:03.260Z,39.58
2022-12-04T22:28:05.494Z,38.63
2022-12-04T22:31:12.503Z,38.65
2022-12-04T22:34:14.837Z,39.97
2022-12-04T22:37:17.284Z,38.38
2022-12-04T22:40:19.540Z,41.00
2022-12-04T22:43:21.786Z,38.17
2022-12-04T22:46:24.310Z,40.45
2022-12-04T22:49:26.830Z,41.07
2022-12-04T22:52:30.014Z,38.80
2022-12-04T22:55:32.329Z,35.08
2022-12-04T22:58:34.953Z,36.65
2022-12-04T23:01:37.151Z,35.83
2022-12-04T23:04:39.435Z,35.10
2022-12-04T23:07:41.715Z,36.38
2022-12-04T23:10:43.975Z,34.28
2022-12-04T23:13:50.462Z,37.33
2022-12-04T23:16:52.907Z,36.22
2022-12-04T23:19:55.562Z,36.77
2022-12-04T23:22:59.217Z,36.33
2022-12-04T23:26:02.927Z,38.90
2022-12-04T23:29:17.902Z,36.83
2022-12-04T23:32:27.581Z,35.63
2022-12-04T23:35:30.033Z,37.97
2022-12-04T23:38:32.544Z,39.08
2022-12-04T23:41:34.840Z,32.15
2022-12-04T23:44:37.037Z,31.58
2022-12-04T23:47:39.485Z,27.88
2022-12-04T23:50:41.992Z,29.90
2022-12-04T23:53:44.640Z,29.73
2022-12-04T23:56:46.864Z,26.23
2022-12-04T23:59:49.075Z,27.15
